Alexander Mills, North Carolina
Current Conditions -  °F | °C
As of 3:55 PM on Tuesday 21 Oct 2014 (Local Time) from KFQD Reporting Station
Clear Clear  
Wind Chill: 72°   Ceiling: Unl
Heat Index: 72°   Visibility: 10mi
Dew Point: 42°   Wind: 13mph
Humidity: 35%   Direction: 310°NW
Pressure: 29.9"   Gusts: 18mph
Location:  35.27°N, 81.8676°W
Report Text: KFQD 211955Z AUTO 31011G16KT 10SM CLR 22/06 A2990 RMK AO2 T02200057
Loading
Personal Weather Stations






























Interactive Weather Map New forecast layout! Learn more

10-Day Weather Forecast

Advertisements
Track Severe Weather on mobile